createdAt,value
2018-07-15T00:00:36.465Z,12.18
2018-07-15T00:03:03.650Z,12.20
2018-07-15T00:05:31.196Z,12.31
2018-07-15T00:07:58.560Z,12.26
2018-07-15T00:10:25.665Z,12.20
2018-07-15T00:12:53.089Z,12.18
2018-07-15T00:15:20.214Z,12.12
2018-07-15T00:17:47.381Z,12.06
2018-07-15T00:20:14.497Z,12.00
2018-07-15T00:22:41.819Z,11.86
2018-07-15T00:25:09.603Z,11.87
2018-07-15T00:27:36.988Z,12.03
2018-07-15T00:30:05.023Z,11.90
2018-07-15T00:32:32.197Z,11.82
2018-07-15T00:34:59.332Z,11.76
2018-07-15T00:37:26.454Z,11.72
2018-07-15T00:39:53.625Z,11.71
2018-07-15T00:42:20.859Z,11.62
2018-07-15T00:44:48.007Z,11.62
2018-07-15T00:47:15.154Z,11.57
2018-07-15T00:49:42.697Z,11.58
2018-07-15T00:52:10.094Z,11.57
2018-07-15T00:54:37.233Z,11.61
2018-07-15T00:57:04.410Z,11.61
2018-07-15T00:59:31.541Z,11.57
2018-07-15T01:01:58.924Z,11.64
2018-07-15T01:04:26.100Z,11.63
2018-07-15T01:06:53.261Z,11.57
2018-07-15T01:09:20.407Z,11.44
2018-07-15T01:11:47.599Z,11.42
2018-07-15T01:14:14.745Z,11.35
2018-07-15T01:16:41.877Z,11.33
2018-07-15T01:19:09.532Z,11.48
2018-07-15T01:21:36.987Z,11.52
2018-07-15T01:24:04.297Z,11.38
2018-07-15T01:26:31.512Z,11.28
2018-07-15T01:28:58.745Z,11.35
2018-07-15T01:31:25.887Z,11.40
2018-07-15T01:33:53.333Z,11.35
2018-07-15T01:36:20.461Z,11.38
2018-07-15T01:38:47.634Z,11.33
2018-07-15T01:41:23.694Z,11.27
2018-07-15T01:43:50.855Z,11.19
2018-07-15T01:46:18.124Z,11.30
2018-07-15T01:48:45.785Z,11.31
2018-07-15T01:51:12.960Z,11.27
2018-07-15T01:53:40.092Z,11.22
2018-07-15T01:56:07.287Z,11.20
2018-07-15T01:58:34.786Z,11.15
2018-07-15T02:01:02.065Z,11.18
2018-07-15T02:03:29.358Z,11.12
2018-07-15T02:05:56.507Z,11.12
2018-07-15T02:08:23.625Z,11.07
2018-07-15T02:10:50.833Z,11.06
2018-07-15T02:13:18.195Z,11.02
2018-07-15T02:15:45.460Z,11.11
2018-07-15T02:18:12.697Z,11.49
2018-07-15T02:20:40.075Z,11.25
2018-07-15T02:23:07.341Z,11.13
2018-07-15T02:25:34.649Z,11.08
2018-07-15T02:28:02.125Z,10.95
2018-07-15T02:30:29.422Z,10.91
2018-07-15T02:32:56.754Z,10.84
2018-07-15T02:35:24.028Z,10.78
2018-07-15T02:37:51.256Z,10.80
2018-07-15T02:40:18.507Z,10.81
2018-07-15T02:42:46.073Z,10.81
2018-07-15T02:45:13.333Z,10.78
2018-07-15T02:47:40.579Z,10.38
2018-07-15T02:50:08.128Z,10.74
2018-07-15T02:52:35.409Z,10.68
2018-07-15T02:55:02.725Z,9.59
2018-07-15T02:57:30.335Z,10.68
2018-07-15T02:59:57.603Z,10.66
2018-07-15T03:02:24.877Z,10.63
2018-07-15T03:04:52.183Z,10.62
2018-07-15T03:07:19.515Z,10.61
2018-07-15T03:09:46.773Z,10.63
2018-07-15T03:12:14.188Z,10.63
2018-07-15T03:14:41.452Z,10.74
2018-07-15T03:17:08.730Z,10.68
2018-07-15T03:19:35.998Z,10.64
2018-07-15T03:22:04.784Z,10.66
2018-07-15T03:24:32.080Z,10.61
2018-07-15T03:26:59.322Z,10.58
2018-07-15T03:29:26.611Z,10.51
2018-07-15T03:31:53.995Z,10.59
2018-07-15T03:34:21.293Z,10.61
2018-07-15T03:36:48.582Z,10.66
2018-07-15T03:39:16.253Z,10.57
2018-07-15T03:41:43.523Z,10.61
2018-07-15T03:44:10.862Z,10.55
2018-07-15T03:46:38.128Z,10.55
2018-07-15T03:49:05.460Z,10.65
2018-07-15T03:51:32.730Z,10.63
2018-07-15T03:54:00.033Z,10.69
2018-07-15T03:56:27.389Z,10.67
2018-07-15T03:58:54.776Z,10.73
2018-07-15T04:01:22.025Z,10.70
2018-07-15T04:03:49.395Z,10.77
2018-07-15T04:06:17.220Z,10.81
2018-07-15T04:08:44.701Z,10.78
2018-07-15T04:11:12.121Z,10.69
2018-07-15T04:13:39.473Z,10.66
2018-07-15T04:16:06.862Z,10.74
2018-07-15T04:18:34.111Z,10.75
2018-07-15T04:21:01.389Z,10.77
2018-07-15T04:23:30.459Z,10.81
2018-07-15T04:25:57.820Z,10.92
2018-07-15T04:28:25.400Z,10.97
2018-07-15T04:30:52.618Z,11.03
2018-07-15T04:33:19.999Z,11.09
2018-07-15T04:35:47.279Z,11.13
2018-07-15T04:38:14.797Z,11.17
2018-07-15T04:40:42.047Z,11.23
2018-07-15T04:43:09.531Z,11.37
2018-07-15T04:45:36.847Z,11.54
2018-07-15T04:48:04.575Z,11.66
2018-07-15T04:50:31.837Z,11.81
2018-07-15T04:52:59.087Z,11.99
2018-07-15T04:55:26.337Z,12.11
2018-07-15T04:57:53.595Z,12.07
2018-07-15T05:00:20.863Z,12.06
2018-07-15T05:02:48.087Z,12.16
2018-07-15T05:05:15.940Z,12.22
2018-07-15T05:07:43.247Z,12.33
2018-07-15T05:10:10.486Z,12.44
2018-07-15T05:12:37.860Z,12.50
2018-07-15T05:15:05.215Z,12.54
2018-07-15T05:17:32.455Z,12.61
2018-07-15T05:20:00.084Z,12.73
2018-07-15T05:22:27.347Z,12.81
2018-07-15T05:24:54.644Z,12.88
2018-07-15T05:27:21.925Z,12.91
2018-07-15T05:29:49.221Z,12.94
2018-07-15T05:32:16.759Z,12.99
2018-07-15T05:34:43.962Z,13.10
2018-07-15T05:37:11.172Z,13.19
2018-07-15T05:39:38.399Z,13.28
2018-07-15T05:42:05.575Z,13.30
2018-07-15T05:44:32.738Z,13.45
2018-07-15T05:46:59.950Z,13.50
2018-07-15T05:49:27.151Z,13.66
2018-07-15T05:51:54.404Z,13.76
2018-07-15T05:54:21.570Z,13.88
2018-07-15T05:56:48.789Z,13.99
2018-07-15T05:59:15.936Z,14.09
2018-07-15T06:01:43.056Z,14.12
2018-07-15T06:04:10.315Z,14.17
2018-07-15T06:06:37.474Z,14.24
2018-07-15T06:09:05.845Z,14.39
2018-07-15T06:11:33.014Z,14.55
2018-07-15T06:14:00.244Z,14.56
2018-07-15T06:16:27.457Z,14.66
2018-07-15T06:18:54.626Z,14.72
2018-07-15T06:21:21.843Z,14.76
2018-07-15T06:23:49.044Z,14.82
2018-07-15T06:26:16.208Z,14.90
2018-07-15T06:28:43.522Z,15.05
2018-07-15T06:31:10.730Z,15.18
2018-07-15T06:33:38.113Z,15.25
2018-07-15T06:36:05.354Z,15.36
2018-07-15T06:38:32.537Z,15.41
2018-07-15T06:40:59.759Z,15.51
2018-07-15T06:43:26.947Z,15.59
2018-07-15T06:45:54.104Z,15.66
2018-07-15T06:48:21.269Z,15.83
2018-07-15T06:50:48.437Z,15.85
2018-07-15T06:53:15.931Z,15.91
2018-07-15T06:55:43.131Z,15.97
2018-07-15T06:58:10.326Z,16.11
2018-07-15T07:00:37.439Z,16.13
2018-07-15T07:03:04.659Z,16.24
2018-07-15T07:05:31.813Z,16.32
2018-07-15T07:07:59.133Z,16.36
2018-07-15T07:10:26.413Z,16.42
2018-07-15T07:12:53.851Z,16.61
2018-07-15T07:15:21.002Z,16.67
2018-07-15T07:17:48.148Z,16.77
2018-07-15T07:20:15.314Z,16.77
2018-07-15T07:22:42.345Z,16.80
2018-07-15T07:25:09.376Z,16.95
2018-07-15T07:27:36.386Z,17.02
2018-07-15T07:30:03.518Z,17.07
2018-07-15T07:32:30.627Z,17.23
2018-07-15T07:34:57.837Z,17.30
2018-07-15T07:37:25.113Z,17.40
2018-07-15T07:39:52.265Z,17.41
2018-07-15T07:42:19.559Z,17.48
2018-07-15T07:44:46.667Z,17.57
2018-07-15T07:47:14.361Z,17.69
2018-07-15T07:49:41.619Z,17.70
2018-07-15T07:52:09.688Z,17.80
2018-07-15T07:54:36.708Z,17.85
2018-07-15T07:57:03.871Z,17.97
2018-07-15T07:59:30.997Z,18.05
2018-07-15T08:01:58.388Z,18.10
2018-07-15T08:04:25.401Z,18.16
2018-07-15T08:06:52.648Z,18.20
2018-07-15T08:09:19.804Z,18.22
2018-07-15T08:11:46.853Z,18.31
2018-07-15T08:14:13.865Z,18.40
2018-07-15T08:16:41.665Z,18.48
2018-07-15T08:19:08.754Z,18.58
2018-07-15T08:21:35.782Z,18.65
2018-07-15T08:24:03.131Z,18.78
2018-07-15T08:26:30.221Z,18.74
2018-07-15T08:28:57.316Z,18.80
2018-07-15T08:31:24.499Z,18.92
2018-07-15T08:33:51.577Z,18.94
2018-07-15T08:36:18.708Z,18.93
2018-07-15T08:38:45.808Z,19.22
2018-07-15T08:41:12.815Z,19.39
2018-07-15T08:43:39.939Z,19.65
2018-07-15T08:46:07.745Z,19.72
2018-07-15T08:48:34.815Z,19.75
2018-07-15T08:51:02.241Z,19.70
2018-07-15T08:53:29.314Z,19.60
2018-07-15T08:55:56.352Z,19.66
2018-07-15T08:58:23.365Z,19.80
2018-07-15T09:00:50.356Z,19.89
2018-07-15T09:03:17.508Z,19.98
2018-07-15T09:05:44.807Z,20.04
2018-07-15T09:08:11.812Z,20.12
2018-07-15T09:10:38.832Z,20.31
2018-07-15T09:13:05.853Z,20.47
2018-07-15T09:15:32.987Z,20.62
2018-07-15T09:18:00.024Z,20.70
2018-07-15T09:20:27.094Z,20.73
2018-07-15T09:22:54.173Z,20.59
2018-07-15T09:25:21.204Z,20.47
2018-07-15T09:27:48.268Z,20.42
2018-07-15T09:30:15.246Z,20.39
2018-07-15T09:32:42.348Z,20.43
2018-07-15T09:35:09.540Z,20.47
2018-07-15T09:37:36.640Z,20.66
2018-07-15T09:48:48.784Z,20.88
2018-07-15T09:51:15.805Z,21.16
2018-07-15T09:53:42.835Z,21.06
2018-07-15T09:56:09.862Z,21.13
2018-07-15T09:58:36.876Z,21.35
2018-07-15T10:01:03.904Z,21.22
2018-07-15T10:03:30.904Z,21.28
2018-07-15T10:05:57.921Z,21.38
2018-07-15T10:08:24.968Z,21.35
2018-07-15T10:10:52.079Z,21.36
2018-07-15T10:21:32.817Z,21.97
2018-07-15T10:23:59.941Z,21.97
2018-07-15T10:26:26.949Z,22.12
2018-07-15T10:28:53.937Z,22.23
2018-07-15T10:31:20.944Z,22.19
2018-07-15T10:33:47.985Z,22.56
2018-07-15T10:36:15.084Z,22.46
2018-07-15T10:38:42.196Z,22.61
2018-07-15T10:41:09.508Z,22.51
2018-07-15T10:43:36.732Z,22.29
2018-07-15T10:46:03.756Z,22.22
2018-07-15T10:48:30.807Z,22.35
2018-07-15T10:50:57.788Z,22.27
2018-07-15T10:53:24.884Z,22.44
2018-07-15T10:55:52.063Z,22.59
2018-07-15T10:58:19.097Z,22.51
2018-07-15T11:00:46.128Z,22.73
2018-07-15T11:03:13.258Z,22.82
2018-07-15T11:05:40.273Z,23.07
2018-07-15T11:08:07.360Z,23.34
2018-07-15T11:10:34.470Z,23.35
2018-07-15T11:13:01.504Z,23.45
2018-07-15T11:15:28.584Z,23.42
2018-07-15T11:17:55.730Z,23.23
2018-07-15T11:20:22.769Z,22.90
2018-07-15T11:22:49.921Z,22.89
2018-07-15T11:25:16.941Z,22.95
2018-07-15T11:27:44.205Z,23.04
2018-07-15T11:30:11.229Z,23.29
2018-07-15T11:32:38.239Z,23.44
2018-07-15T11:35:05.641Z,23.25
2018-07-15T11:37:32.694Z,23.26
2018-07-15T11:39:59.692Z,22.99
2018-07-15T11:42:26.794Z,22.83
2018-07-15T11:44:53.830Z,22.75
2018-07-15T11:47:20.843Z,22.80
2018-07-15T11:49:48.043Z,22.62
2018-07-15T11:52:15.203Z,22.97
2018-07-15T11:54:42.304Z,23.22
2018-07-15T11:57:09.472Z,23.33
2018-07-15T12:00:04.786Z,23.38
2018-07-15T12:02:31.789Z,23.21
2018-07-15T12:04:58.792Z,23.46
2018-07-15T12:07:26.046Z,23.75
2018-07-15T12:09:53.052Z,23.96
2018-07-15T12:12:20.046Z,23.68
2018-07-15T12:14:47.134Z,23.52
2018-07-15T12:17:14.133Z,23.72
2018-07-15T12:19:41.482Z,23.93
2018-07-15T12:22:08.477Z,24.53
2018-07-15T12:24:35.488Z,24.46
2018-07-15T12:27:02.628Z,24.49
2018-07-15T12:29:29.686Z,25.12
2018-07-15T12:31:56.721Z,25.49
2018-07-15T12:34:23.836Z,25.54
2018-07-15T12:36:50.968Z,25.29
2018-07-15T12:39:18.145Z,25.47
2018-07-15T12:41:45.161Z,25.99
2018-07-15T12:44:12.193Z,26.06
2018-07-15T12:46:39.372Z,25.23
2018-07-15T12:49:06.559Z,24.72
2018-07-15T12:51:33.569Z,25.61
2018-07-15T12:54:00.593Z,25.53
2018-07-15T12:56:28.443Z,25.96
2018-07-15T12:58:55.532Z,25.87
2018-07-15T13:01:22.942Z,26.20
2018-07-15T13:03:50.050Z,25.69
2018-07-15T13:06:17.084Z,25.14
2018-07-15T13:08:44.100Z,24.98
2018-07-15T13:11:11.217Z,25.51
2018-07-15T13:13:38.303Z,25.27
2018-07-15T13:16:05.334Z,25.25
2018-07-15T13:18:32.657Z,25.49
2018-07-15T13:20:59.674Z,25.61
2018-07-15T13:23:27.051Z,26.03
2018-07-15T13:25:54.057Z,26.71
2018-07-15T13:28:21.092Z,26.66
2018-07-15T13:30:48.103Z,26.02
2018-07-15T13:33:15.108Z,24.99
2018-07-15T13:35:42.409Z,24.65
2018-07-15T13:38:09.436Z,24.51
2018-07-15T13:40:36.478Z,25.06
2018-07-15T13:43:03.756Z,25.00
2018-07-15T13:45:30.781Z,25.68
2018-07-15T13:47:57.793Z,26.31
2018-07-15T13:50:24.839Z,26.63
2018-07-15T13:52:51.854Z,27.22
2018-07-15T13:55:18.952Z,27.55
2018-07-15T13:57:46.072Z,26.87
2018-07-15T14:00:13.202Z,26.53
2018-07-15T14:02:40.316Z,26.61
2018-07-15T14:05:07.512Z,26.08
2018-07-15T14:07:34.509Z,26.94
2018-07-15T14:10:01.673Z,27.00
2018-07-15T14:12:29.034Z,27.35
2018-07-15T14:14:56.079Z,27.24
2018-07-15T14:17:23.122Z,26.44
2018-07-15T14:19:50.139Z,27.12
2018-07-15T14:22:17.184Z,27.00
2018-07-15T14:24:44.215Z,26.45
2018-07-15T14:27:11.618Z,25.85
2018-07-15T14:29:38.617Z,25.47
2018-07-15T14:32:05.657Z,25.01
2018-07-15T14:34:32.742Z,24.91
2018-07-15T14:36:59.841Z,25.03
2018-07-15T14:39:36.378Z,25.30
2018-07-15T14:42:03.952Z,26.21
2018-07-15T14:44:31.032Z,26.53
2018-07-15T14:46:58.049Z,26.56
2018-07-15T14:49:25.081Z,26.92
2018-07-15T14:51:52.534Z,26.85
2018-07-15T14:54:19.577Z,26.87
2018-07-15T14:56:46.613Z,26.87
2018-07-15T14:59:13.622Z,27.10
2018-07-15T15:01:40.745Z,27.43
2018-07-15T15:04:07.916Z,27.39
2018-07-15T15:06:35.063Z,27.06
2018-07-15T15:09:02.238Z,26.63
2018-07-15T15:11:29.378Z,26.90
2018-07-15T15:13:56.423Z,27.07
2018-07-15T15:16:23.502Z,27.14
2018-07-15T15:18:50.524Z,26.51
2018-07-15T15:21:18.259Z,26.80
2018-07-15T15:23:48.831Z,26.51
2018-07-15T15:26:15.899Z,26.28
2018-07-15T15:28:43.785Z,26.32
2018-07-15T15:31:12.217Z,26.42
2018-07-15T15:33:41.539Z,26.37
2018-07-15T15:36:09.233Z,26.25
2018-07-15T15:38:36.995Z,26.46
2018-07-15T15:41:04.874Z,26.31
2018-07-15T15:43:34.114Z,26.32
2018-07-15T15:46:01.143Z,26.12
2018-07-15T15:48:28.897Z,26.07
2018-07-15T15:50:57.259Z,26.02
2018-07-15T15:53:26.678Z,25.95
2018-07-15T15:55:53.781Z,26.11
2018-07-15T15:58:23.273Z,26.47
2018-07-15T16:00:50.340Z,26.05
2018-07-15T16:03:18.589Z,25.61
2018-07-15T16:05:47.100Z,25.88
2018-07-15T16:08:15.584Z,26.18
2018-07-15T16:10:43.308Z,26.24
2018-07-15T16:13:12.198Z,26.44
2018-07-15T16:15:40.706Z,26.48
2018-07-15T16:18:09.067Z,26.16
2018-07-15T16:20:38.976Z,25.71
2018-07-15T16:23:08.331Z,25.61
2018-07-15T16:25:36.689Z,25.21
2018-07-15T16:28:08.220Z,25.19
2018-07-15T16:30:37.427Z,25.17
2018-07-15T16:33:06.933Z,25.11
2018-07-15T16:35:36.355Z,24.93
2018-07-15T16:38:11.368Z,25.12
2018-07-15T16:40:43.378Z,24.90
2018-07-15T16:43:14.622Z,24.80
2018-07-15T16:45:47.026Z,24.84
2018-07-15T16:48:17.028Z,25.08
2018-07-15T16:50:50.632Z,25.19
2018-07-15T16:53:20.169Z,25.20
2018-07-15T16:55:52.727Z,25.09
2018-07-15T16:58:22.560Z,25.06
2018-07-15T17:00:53.532Z,25.06
2018-07-15T17:03:24.171Z,24.93
2018-07-15T17:05:54.120Z,24.88
2018-07-15T17:08:26.390Z,24.78
2018-07-15T17:10:57.006Z,24.56
2018-07-15T17:13:29.588Z,24.60
2018-07-15T17:15:59.215Z,24.48
2018-07-15T17:18:29.918Z,24.43
2018-07-15T17:21:02.331Z,24.27
2018-07-15T17:23:32.807Z,24.27
2018-07-15T17:26:03.753Z,24.19
2018-07-15T17:28:36.917Z,24.30
2018-07-15T17:31:08.248Z,24.31
2018-07-15T17:33:40.252Z,24.07
2018-07-15T17:36:09.812Z,24.06
2018-07-15T17:38:41.659Z,24.03
2018-07-15T17:41:14.391Z,24.09
2018-07-15T17:43:47.121Z,24.05
2018-07-15T17:46:19.931Z,24.05
2018-07-15T17:48:55.676Z,24.07
2018-07-15T17:51:27.511Z,24.06
2018-07-15T17:53:58.934Z,24.03
2018-07-15T17:56:29.770Z,23.94
2018-07-15T17:59:02.194Z,23.93
2018-07-15T18:01:34.770Z,23.85
2018-07-15T18:04:05.042Z,23.86
2018-07-15T18:06:36.059Z,23.81
2018-07-15T18:09:09.975Z,23.77
2018-07-15T18:11:46.677Z,23.75
2018-07-15T18:14:18.090Z,23.71
2018-07-15T18:16:51.058Z,23.63
2018-07-15T18:19:21.540Z,23.53
2018-07-15T18:21:52.056Z,23.46
2018-07-15T18:24:23.863Z,23.40
2018-07-15T18:26:53.550Z,23.29
2018-07-15T18:29:25.462Z,23.28
2018-07-15T18:31:55.947Z,23.23
2018-07-15T18:34:26.941Z,23.26
2018-07-15T18:36:57.837Z,23.24
2018-07-15T18:39:30.126Z,23.18
2018-07-15T18:42:00.533Z,23.14
2018-07-15T18:44:30.226Z,23.11
2018-07-15T18:47:00.541Z,23.01
2018-07-15T18:49:30.149Z,22.93
2018-07-15T18:51:59.561Z,22.85
2018-07-15T18:54:29.267Z,22.75
2018-07-15T18:56:59.528Z,22.77
2018-07-15T18:59:30.115Z,22.71
2018-07-15T19:02:02.307Z,22.65
2018-07-15T19:04:32.040Z,22.56
2018-07-15T19:07:03.848Z,22.52
2018-07-15T19:09:35.398Z,22.43
2018-07-15T19:12:05.372Z,22.34
2018-07-15T19:14:35.079Z,22.31
2018-07-15T19:17:05.780Z,22.15
2018-07-15T19:19:35.424Z,22.04
2018-07-15T19:22:05.619Z,21.94
2018-07-15T19:24:36.217Z,21.98
2018-07-15T19:27:06.417Z,21.87
2018-07-15T19:29:36.913Z,21.74
2018-07-15T19:32:04.441Z,21.68
2018-07-15T19:34:33.952Z,21.67
2018-07-15T19:37:02.930Z,21.57
2018-07-15T19:39:31.728Z,21.49
2018-07-15T19:42:02.005Z,21.42
2018-07-15T19:44:31.254Z,21.32
2018-07-15T19:47:00.354Z,21.31
2018-07-15T19:49:32.103Z,21.27
2018-07-15T19:52:01.449Z,21.32
2018-07-15T19:54:31.055Z,21.27
2018-07-15T19:57:00.144Z,21.10
2018-07-15T19:59:29.260Z,21.04
2018-07-15T20:01:58.794Z,21.05
2018-07-15T20:04:27.859Z,21.06
2018-07-15T20:06:57.370Z,21.03
2018-07-15T20:09:26.726Z,20.99
2018-07-15T20:11:55.744Z,20.93
2018-07-15T20:14:29.392Z,20.88
2018-07-15T20:16:56.778Z,20.82
2018-07-15T20:19:25.822Z,20.77
2018-07-15T20:21:56.513Z,20.74
2018-07-15T20:24:25.955Z,20.65
2018-07-15T20:26:54.875Z,20.63
2018-07-15T20:29:23.840Z,20.57
2018-07-15T20:31:54.506Z,20.44
2018-07-15T20:34:28.718Z,20.19
2018-07-15T20:36:57.883Z,20.02
2018-07-15T20:39:29.998Z,19.93
2018-07-15T20:41:59.980Z,19.74
2018-07-15T20:44:30.155Z,19.74
2018-07-15T20:46:59.331Z,19.62
2018-07-15T20:49:28.326Z,19.59
2018-07-15T20:51:58.588Z,19.57
2018-07-15T20:54:28.134Z,19.66
2018-07-15T20:56:57.300Z,19.68
2018-07-15T20:59:26.532Z,19.67
2018-07-15T21:01:56.061Z,19.68
2018-07-15T21:04:25.410Z,19.64
2018-07-15T21:06:54.453Z,19.64
2018-07-15T21:09:24.538Z,19.60
2018-07-15T21:11:53.660Z,19.51
2018-07-15T21:14:23.117Z,19.42
2018-07-15T21:16:52.463Z,19.38
2018-07-15T21:19:22.890Z,19.34
2018-07-15T21:21:50.113Z,19.37
2018-07-15T21:24:19.359Z,19.35
2018-07-15T21:26:48.396Z,19.32
2018-07-15T21:29:18.596Z,19.22
2018-07-15T21:31:45.821Z,19.17
2018-07-15T21:34:13.169Z,19.22
2018-07-15T21:36:40.153Z,19.12
2018-07-15T21:39:08.528Z,19.07
2018-07-15T21:41:35.565Z,19.01
2018-07-15T21:44:02.672Z,18.99
2018-07-15T21:46:29.679Z,19.00
2018-07-15T21:48:56.696Z,18.98
2018-07-15T21:51:23.715Z,18.88
2018-07-15T21:53:50.748Z,18.80
2018-07-15T21:56:17.837Z,18.74
2018-07-15T21:58:45.892Z,18.67
2018-07-15T22:01:12.920Z,18.61
2018-07-15T22:03:39.956Z,18.62
2018-07-15T22:06:17.290Z,18.57
2018-07-15T22:08:55.784Z,18.65
2018-07-15T22:11:22.908Z,18.63
2018-07-15T22:13:49.925Z,18.53
2018-07-15T22:16:17.361Z,18.44
2018-07-15T22:18:44.624Z,18.32
2018-07-15T22:21:11.736Z,18.49
2018-07-15T22:23:38.788Z,18.50
2018-07-15T22:26:05.844Z,18.39
2018-07-15T22:28:33.281Z,18.50
2018-07-15T22:31:00.493Z,18.50
2018-07-15T22:33:27.948Z,18.52
2018-07-15T22:35:55.046Z,18.35
2018-07-15T22:38:22.176Z,18.40
2018-07-15T22:40:49.201Z,18.15
2018-07-15T22:43:16.281Z,18.21
2018-07-15T22:45:43.317Z,18.18
2018-07-15T22:48:11.233Z,18.23
2018-07-15T22:50:38.592Z,18.17
2018-07-15T22:53:05.697Z,18.21
2018-07-15T22:55:32.713Z,18.04
2018-07-15T22:57:59.734Z,17.96
2018-07-15T23:00:26.728Z,17.91
2018-07-15T23:02:53.777Z,17.95
2018-07-15T23:05:36.932Z,17.83
2018-07-15T23:08:04.632Z,17.78
2018-07-15T23:10:31.715Z,17.64
2018-07-15T23:12:58.737Z,17.52
2018-07-15T23:15:25.866Z,17.58
2018-07-15T23:17:52.925Z,17.64
2018-07-15T23:20:19.957Z,17.56
2018-07-15T23:22:47.396Z,17.52
2018-07-15T23:25:14.400Z,17.45
2018-07-15T23:27:41.405Z,17.57
2018-07-15T23:30:08.440Z,17.55
2018-07-15T23:32:35.532Z,17.49
2018-07-15T23:35:02.631Z,17.39
2018-07-15T23:37:30.066Z,17.20
2018-07-15T23:39:57.117Z,17.09
2018-07-15T23:42:24.125Z,17.14
2018-07-15T23:44:51.238Z,17.20
2018-07-15T23:47:18.317Z,17.16
2018-07-15T23:49:45.408Z,17.03
2018-07-15T23:52:12.781Z,16.99
2018-07-15T23:54:39.808Z,16.85
2018-07-15T23:57:07.618Z,16.93
2018-07-15T23:59:34.626Z,16.92
